MST,Max TemperatureF,Mean TemperatureF,Min TemperatureF,Max Dew PointF,MeanDew PointF,Min DewpointF,Max Humidity, Mean Humidity, Min Humidity, Max Sea Level PressureIn, Mean Sea Level PressureIn, Min Sea Level PressureIn, Max VisibilityMiles, Mean VisibilityMiles, Min VisibilityMiles, Max Wind SpeedMPH, Mean Wind SpeedMPH, Max Gust SpeedMPH,PrecipitationIn, CloudCover, Events, WindDirDegrees
2012-12-1,64,49,33,26,23,20,61,42,22,29.99,29.89,29.74,10,10,10,20,12,22,0.00,0,,261
2012-12-2,66,52,37,25,19,13,54,35,16,29.97,29.76,29.51,10,10,10,26,13,36,0.00,0,,206
2012-12-3,51,40,28,26,17,11,53,37,21,30.20,29.94,29.51,10,10,10,41,17,49,0.00,0,,306
2012-12-4,54,38,22,19,15,10,63,41,19,30.40,30.26,30.16,10,10,10,15,9,17,0.00,0,,226
2012-12-5,65,50,35,27,21,15,45,33,21,30.13,29.91,29.76,10,10,10,17,10,22,0.00,0,,243
2012-12-6,51,39,26,31,21,13,70,55,39,30.04,29.94,29.78,10,10,10,28,14,33,0.00,2,,83
2012-12-7,46,35,24,22,18,13,69,51,33,30.01,29.92,29.85,10,10,10,24,11,33,0.00,3,,257
2012-12-8,50,36,22,24,16,1,78,53,27,29.95,29.81,29.63,10,10,10,33,15,44,T,3,,261
2012-12-9,22,13,3,9,1,-5,69,55,41,30.41,30.24,29.97,10,10,10,32,19,43,0.00,2,,333
2012-12-10,40,23,5,19,7,-3,69,47,25,30.20,30.04,29.91,10,10,7,26,13,32,T,6,Snow,290
2012-12-11,40,28,15,15,11,5,92,59,25,30.08,29.97,29.84,10,10,10,18,10,23,0.00,1,,228
2012-12-12,60,43,26,13,11,7,50,31,11,29.90,29.82,29.70,10,10,10,20,12,22,0.00,0,,239
2012-12-13,54,44,34,15,13,12,41,31,20,30.04,29.95,29.87,10,10,10,24,11,29,0.00,0,,164
2012-12-14,44,34,23,37,30,10,100,66,31,29.84,29.58,29.50,10,5,0,31,8,38,0.04,6,Fog-Rain,248
2012-12-15,46,34,22,34,27,17,96,71,45,29.78,29.69,29.55,10,7,0,20,11,22,0.01,5,Fog-Rain,325
2012-12-16,32,27,22,29,26,15,100,79,58,29.88,29.74,29.67,10,4,0,15,7,22,0.00,6,Fog,219
2012-12-17,54,38,22,17,14,10,68,45,22,29.83,29.68,29.53,10,10,10,31,12,40,0.00,1,,242
2012-12-18,47,36,24,20,10,2,69,44,19,29.83,29.74,29.66,10,10,10,32,10,38,0.00,6,,356
2012-12-19,29,17,4,18,13,-6,91,63,34,30.30,29.87,29.68,10,4,0,43,21,108,0.08,5,Fog-Snow,353
2012-12-20,31,17,2,11,4,-6,69,54,39,30.41,30.33,30.27,10,10,10,25,15,31,0.00,0,,254
2012-12-21,45,34,22,21,13,7,50,43,35,30.28,30.18,30.08,10,10,10,17,13,21,0.00,0,,231
2012-12-22,44,34,24,23,13,8,61,47,32,30.12,30.05,29.94,10,10,10,20,13,23,0.00,0,,241
2012-12-23,45,33,20,22,14,8,65,51,37,30.05,29.97,29.90,10,10,10,20,12,23,0.00,0,,288
2012-12-24,29,19,9,20,13,6,96,76,55,30.13,29.93,29.76,10,7,1,24,13,29,T,6,Snow,117
2012-12-25,13,7,0,7,3,-3,91,81,70,30.46,30.20,29.97,10,4,1,20,11,22,0.02,7,Snow,61
2012-12-26,18,7,-5,14,8,-7,95,84,73,30.25,29.87,29.63,10,7,1,26,13,30,T,4,Snow,161
2012-12-27,19,11,2,11,7,2,92,83,73,30.09,29.86,29.62,10,8,1,21,9,24,T,4,Rain-Snow,291
2012-12-28,28,15,1,16,5,-2,95,79,63,30.29,30.12,29.89,10,7,0,20,12,24,T,2,Fog-Snow,291
2012-12-29,35,20,5,17,5,-5,80,62,44,30.36,30.24,30.01,10,10,10,18,11,23,0.00,0,,210
2012-12-30,31,19,7,14,8,3,83,66,49,30.20,30.10,29.97,10,10,10,23,10,26,0.00,0,,305
2012-12-31,20,15,9,18,14,7,96,88,80,30.23,30.07,29.94,10,4,0,12,6,14,0.01,8,Fog-Snow,14